ROMMA est une association bénévole à but non lucratif. Votre soutien est indispensable : ADHERER à ROMMA ou FAIRE un DON

Voiron - (38, Isère)

Voironnais (300 m)   Longitude: 05° 35' E   Latitude: 45° 23' N Station partenaire n°109
 

Détail journalier du     <<     >>

Température Precipitation Humidité Pression Vent Dir Rafale Dir. rafale Ensol.
Heure (°C) (mm) (%) (hPa) (km/h) (km/h) (min)
01:00 10.308510242SSE8SSE0
02:00 9.5087102503ONO0
03:00 8.708810251ONO5ONO0
04:00 8.10901024000
05:00 7.7090102308SSE0
06:00 7.608910232S8NNO0
07:00 8.308610233ESE15S0
08:00 8.408310236SE27E0
09:00 8.808310243SE18SE0
10:00 11.207710241NE8NNO60
11:00 13.206810244SE15SSE60
12:00 14.106710248S21SSE60
13:00 15.905910246S15SSE60
14:00 17.605610235S15ESE60
15:00 18.505610226SSE16SO60
16:00 19.605610215ESE15SSE60
17:00 20.905510202S10S60
18:00 22.105410201NO5ONO60
19:00 19.706310202SE13SO30
20:00 18.306810212SSE11S0
21:00 16.4075102105SSE0
22:00 14.208310222NO5NO0
23:00 13.3085102205NO0
minuit 12.508710221NO5NO0

Graphique du 11-10-2019

 

Serveur OMMA